Terminal Aerodrome Forecast
Issued by NWS

Home | Current Version | Previous Version | Text Only | Print | Product List | Glossary On
Versions: 1 2 3 4 5 6 7 8 9 10 11 12 13 14 15 16 17 18 19 20 21
000
FTUS43 KMQT 282251 AAA
TAFCMX
TAF AMD
KCMX 282251Z 2823/2918 10008KT P6SM VCTS FEW005 SCT050CB BKN100
     FM290100 11008KT P6SM BKN100
     FM290300 15008KT P6SM SCT100 WS007/21035KT
     FM291000 20009KT P6SM BKN120
     FM291100 21009KT P6SM -SHRA BKN080
     FM291400 00000KT 6SM -SHRA BR OVC035=

USA.gov is the U.S. government's official web portal to all federal, state and local government web resources and services.